Time;durP1;ratioP1;P1;durP2;ratioP2;P2;SDS_P1;SDS_P2;PMS_P1;PMS_P2;Temp;Humidity;BMP_temperature;BMP_pressure;BME280_temperature;BME280_humidity;BME280_pressure;Samples;Min_cycle;Max_cycle;Signal;HPM_P1;HPM_P2
2021/08/21 00:00:58;;;;;;;7.40;4.90;;;;;;;20.71;55.76;100471.85;117428;1184;23347;-64
2021/08/21 00:03:27;;;;;;;7.00;5.00;;;;;;;20.75;55.76;100470.19;117429;1182;23527;-64
2021/08/21 00:05:56;;;;;;;6.90;5.10;;;;;;;20.79;55.64;100469.30;117456;1184;21865;-71
2021/08/21 00:08:24;;;;;;;8.20;4.90;;;;;;;20.79;55.68;100470.36;117356;1186;22322;-64
2021/08/21 00:11:08;;;;;;;7.50;5.10;;;;;;;20.80;55.59;100467.64;117378;1182;23437;-64
2021/08/21 00:13:37;;;;;;;8.30;5.10;;;;;;;20.80;55.62;100468.01;117475;1185;23452;-64
2021/08/21 00:16:05;;;;;;;6.80;4.90;;;;;;;20.78;55.65;100468.79;117432;1184;21845;-64
2021/08/21 00:18:34;;;;;;;7.30;5.20;;;;;;;20.68;55.97;100465.41;117427;1186;21861;-71
2021/08/21 00:21:23;;;;;;;7.80;5.30;;;;;;;20.64;56.04;100470.21;117298;1182;22622;-64
2021/08/21 00:23:51;;;;;;;7.80;5.30;;;;;;;20.67;56.04;100469.89;117230;1186;22094;-64
2021/08/21 00:26:19;;;;;;;7.70;5.00;;;;;;;20.74;55.92;100471.16;117358;1184;21900;-66
2021/08/21 00:28:47;;;;;;;5.10;4.20;;;;;;;20.74;55.86;100470.63;117396;1180;22929;-72
2021/08/21 00:31:17;;;;;;;6.90;5.10;;;;;;;20.72;56.01;100468.75;117346;1185;21862;-72
2021/08/21 00:33:47;;;;;;;6.40;4.90;;;;;;;20.77;55.79;100466.90;117389;1184;23475;-72
2021/08/21 00:36:15;;;;;;;7.00;5.00;;;;;;;20.78;55.72;100465.23;117366;1185;23461;-73
2021/08/21 00:38:44;;;;;;;7.80;5.30;;;;;;;20.73;55.84;100465.16;117379;1186;22788;-72
2021/08/21 00:41:12;;;;;;;6.10;5.00;;;;;;;20.69;55.92;100468.71;117321;1183;21857;-65
2021/08/21 00:43:51;;;;;;;6.50;4.90;;;;;;;20.67;55.96;100468.81;117344;1185;23538;-72
2021/08/21 00:46:20;;;;;;;7.50;5.60;;;;;;;20.72;55.93;100471.59;117469;1185;24171;-65
2021/08/21 00:48:49;;;;;;;9.30;6.90;;;;;;;20.76;55.90;100470.35;117300;1182;23488;-72
2021/08/21 00:51:18;;;;;;;9.10;6.90;;;;;;;20.67;55.95;100473.29;117344;1184;21859;-72
2021/08/21 00:53:46;;;;;;;9.70;6.90;;;;;;;20.60;56.04;100472.58;117450;1185;21849;-72
2021/08/21 00:56:14;;;;;;;10.40;6.70;;;;;;;20.55;56.04;100472.34;117324;1183;22648;-64
2021/08/21 00:58:44;;;;;;;9.70;6.70;;;;;;;20.47;56.13;100471.31;117408;1184;21844;-71
2021/08/21 01:01:13;;;;;;;12.00;6.50;;;;;;;20.37;56.34;100471.09;117368;1185;23480;-71
2021/08/21 01:03:41;;;;;;;9.20;6.20;;;;;;;20.30;56.37;100470.08;117400;1183;24171;-72
2021/08/21 01:06:10;;;;;;;7.80;6.30;;;;;;;20.26;56.47;100468.67;117396;1185;21852;-64
2021/08/21 01:08:38;;;;;;;7.70;5.90;;;;;;;20.17;56.66;100467.17;117157;1186;22857;-72
2021/08/21 01:11:06;;;;;;;7.90;6.10;;;;;;;20.06;56.95;100469.84;117378;1185;23451;-71
2021/08/21 01:13:51;;;;;;;8.90;6.10;;;;;;;20.07;56.96;100472.31;117332;1185;23365;-65
2021/08/21 01:16:21;;;;;;;8.60;6.70;;;;;;;20.01;57.15;100473.08;117212;1185;21871;-70
2021/08/21 01:18:50;;;;;;;7.50;5.50;;;;;;;19.96;57.38;100470.85;117241;1185;21859;-62
2021/08/21 01:21:18;;;;;;;6.80;5.30;;;;;;;19.99;57.28;100468.39;117394;1185;23635;-70
2021/08/21 01:23:47;;;;;;;7.90;6.20;;;;;;;20.05;57.16;100468.83;117494;1185;23471;-62
2021/08/21 01:26:15;;;;;;;7.90;6.00;;;;;;;20.03;57.28;100472.83;117520;1183;21855;-73
2021/08/21 01:28:46;;;;;;;8.30;5.30;;;;;;;20.06;57.17;100473.21;117459;1185;22925;-70
2021/08/21 01:31:14;;;;;;;7.00;5.60;;;;;;;20.06;57.17;100475.70;117475;1182;21855;-70
2021/08/21 01:33:42;;;;;;;8.10;5.80;;;;;;;20.04;57.25;100476.67;117360;1184;23554;-63
2021/08/21 01:36:11;;;;;;;6.70;5.50;;;;;;;19.93;57.46;100474.58;117506;1182;23721;-64
2021/08/21 01:38:57;;;;;;;6.80;5.70;;;;;;;19.87;57.58;100476.78;117483;1183;21857;-63
2021/08/21 01:41:26;;;;;;;7.30;5.50;;;;;;;19.80;57.69;100478.40;117313;1185;23650;-63
2021/08/21 01:43:54;;;;;;;7.50;5.30;;;;;;;19.71;57.87;100478.64;117411;1183;22925;-64
2021/08/21 01:46:23;;;;;;;8.90;5.70;;;;;;;19.62;57.79;100486.76;117469;1184;22966;-63
2021/08/21 01:48:51;;;;;;;6.70;5.00;;;;;;;19.43;58.02;100486.55;117402;1185;24175;-63
2021/08/21 01:51:20;;;;;;;7.30;5.70;;;;;;;19.22;58.54;100488.97;117416;1179;23452;-70
2021/08/21 01:53:52;;;;;;;7.30;6.20;;;;;;;19.11;58.79;100489.84;117433;1183;24211;-64
2021/08/21 01:56:20;;;;;;;6.70;5.40;;;;;;;19.05;58.95;100492.05;117457;1185;22854;-70
2021/08/21 01:58:49;;;;;;;6.20;5.50;;;;;;;19.02;59.07;100492.17;117331;1183;21845;-72
2021/08/21 02:01:17;;;;;;;6.30;5.60;;;;;;;19.00;59.15;100494.24;117548;1184;21855;-64
2021/08/21 02:03:46;;;;;;;6.80;5.20;;;;;;;18.96;59.20;100493.16;117288;1186;23475;-71
2021/08/21 02:06:14;;;;;;;6.80;5.50;;;;;;;18.94;59.25;100495.71;117353;1185;23127;-64
2021/08/21 02:08:43;;;;;;;6.30;5.40;;;;;;;18.94;59.32;100495.90;117340;1184;23455;-71
2021/08/21 02:11:12;;;;;;;6.80;6.00;;;;;;;18.93;59.35;100497.91;117469;1185;23480;-64
2021/08/21 02:13:42;;;;;;;7.90;5.70;;;;;;;18.92;59.36;100495.65;117388;1183;23451;-65
2021/08/21 02:16:23;;;;;;;8.10;5.80;;;;;;;18.94;59.40;100500.55;117394;1188;23484;-67
2021/08/21 02:18:51;;;;;;;9.50;5.70;;;;;;;18.95;59.43;100499.44;117398;1183;23575;-69
2021/08/21 02:21:21;;;;;;;8.40;5.80;;;;;;;18.96;59.43;100502.61;117521;1186;22925;-65
2021/08/21 02:23:49;;;;;;;8.30;6.10;;;;;;;18.98;59.53;100502.17;117434;1185;21849;-70
2021/08/21 02:26:18;;;;;;;9.00;6.10;;;;;;;18.99;59.62;100500.88;117387;1182;23292;-70
2021/08/21 02:28:46;;;;;;;9.50;6.20;;;;;;;19.00;59.67;100496.91;117391;1189;21865;-69
2021/08/21 02:31:15;;;;;;;9.70;6.30;;;;;;;19.01;59.70;100497.90;117433;1185;21855;-70
2021/08/21 02:33:43;;;;;;;7.20;5.80;;;;;;;19.04;59.64;100500.99;117444;1185;23477;-71
2021/08/21 02:36:12;;;;;;;9.80;6.50;;;;;;;19.12;59.46;100500.63;117431;1186;21871;-66
2021/08/21 02:38:44;;;;;;;10.30;6.40;;;;;;;19.18;59.51;100497.17;117321;1182;23450;-70
2021/08/21 02:41:12;;;;;;;12.30;7.10;;;;;;;19.15;59.70;100498.16;117443;1185;22818;-65
2021/08/21 02:43:41;;;;;;;10.80;6.60;;;;;;;19.17;59.74;100495.60;117385;1180;22921;-65
2021/08/21 02:46:09;;;;;;;9.00;7.00;;;;;;;19.17;59.98;100497.38;117434;1184;23476;-69
2021/08/21 02:48:39;;;;;;;9.00;7.20;;;;;;;19.19;60.09;100501.55;117472;1185;23555;-66
2021/08/21 02:51:07;;;;;;;8.90;6.40;;;;;;;19.27;60.04;100506.86;117425;1186;21845;-70
2021/08/21 02:53:36;;;;;;;8.20;6.90;;;;;;;19.25;60.30;100506.41;117451;1184;22938;-70
2021/08/21 02:56:04;;;;;;;9.30;8.00;;;;;;;19.27;60.33;100510.47;117419;1186;21909;-69
2021/08/21 02:58:32;;;;;;;10.10;6.90;;;;;;;19.30;60.39;100509.06;117468;1186;21868;-69
2021/08/21 03:01:02;;;;;;;9.80;7.20;;;;;;;19.34;60.42;100512.25;117409;1185;23643;-67
2021/08/21 03:03:31;;;;;;;10.70;6.70;;;;;;;19.37;60.44;100510.34;117450;1185;23550;-66
2021/08/21 03:05:59;;;;;;;8.50;7.00;;;;;;;19.37;60.52;100512.81;117474;1176;21854;-66
2021/08/21 03:08:27;;;;;;;8.70;7.10;;;;;;;19.40;60.53;100510.20;117403;1184;24248;-65
2021/08/21 03:11:14;;;;;;;10.60;7.40;;;;;;;19.41;60.61;100512.29;117435;1179;23607;-67
2021/08/21 03:13:43;;;;;;;8.00;6.70;;;;;;;19.39;60.75;100514.53;117387;1176;23487;-69
2021/08/21 03:16:12;;;;;;;8.30;6.60;;;;;;;19.41;60.76;100519.59;117417;1182;21844;-66
2021/08/21 03:18:40;;;;;;;9.40;6.50;;;;;;;19.42;60.86;100515.27;117383;1185;23552;-66
2021/08/21 03:21:08;;;;;;;8.20;7.20;;;;;;;19.43;60.87;100512.71;117436;1186;23484;-65
2021/08/21 03:23:38;;;;;;;10.00;7.40;;;;;;;19.47;60.92;100513.43;117412;1185;23554;-65
2021/08/21 03:26:06;;;;;;;7.90;6.60;;;;;;;19.48;60.92;100510.88;117422;1186;22917;-69
2021/08/21 03:28:34;;;;;;;8.30;7.10;;;;;;;19.50;60.83;100515.59;117364;1182;21867;-64
2021/08/21 03:31:03;;;;;;;8.90;7.40;;;;;;;19.51;60.92;100511.27;117404;1185;23472;-64
2021/08/21 03:33:31;;;;;;;9.60;7.00;;;;;;;19.55;60.96;100516.42;117457;1185;22935;-65
2021/08/21 03:35:59;;;;;;;10.70;7.20;;;;;;;19.57;60.99;100514.56;117384;1186;22009;-65
2021/08/21 03:38:28;;;;;;;11.90;7.50;;;;;;;19.60;61.03;100516.37;117664;1182;21864;-68
2021/08/21 03:40:56;;;;;;;9.00;7.30;;;;;;;19.65;61.04;100518.30;117422;1182;21857;-65
2021/08/21 03:43:24;;;;;;;10.20;7.30;;;;;;;19.70;60.95;100523.20;117380;1183;24154;-65
2021/08/21 03:45:52;;;;;;;10.50;7.60;;;;;;;19.72;61.01;100524.69;117343;1184;23475;-69
2021/08/21 03:48:21;;;;;;;9.90;7.20;;;;;;;19.79;60.90;100523.81;117406;1186;23454;-64
2021/08/21 03:50:49;;;;;;;14.20;7.20;;;;;;;19.80;60.93;100528.22;117333;1186;21859;-64
2021/08/21 03:53:19;;;;;;;10.30;7.10;;;;;;;19.84;60.97;100525.73;117405;1186;21857;-69
2021/08/21 03:55:57;;;;;;;9.30;6.50;;;;;;;19.88;60.97;100530.50;117531;1179;21853;-76
2021/08/21 03:58:25;;;;;;;20.90;7.30;;;;;;;19.95;60.63;100532.20;117342;1186;23475;-63
2021/08/21 04:00:53;;;;;;;11.80;7.60;;;;;;;20.10;60.66;100527.85;117361;1188;21861;-69
2021/08/21 04:03:24;;;;;;;9.80;7.10;;;;;;;20.21;60.64;100525.73;117350;1185;22898;-68
2021/08/21 04:05:52;;;;;;;10.00;7.40;;;;;;;20.25;60.67;100526.42;117361;1182;21864;-68
2021/08/21 04:08:24;;;;;;;9.00;7.80;;;;;;;20.34;60.57;100526.67;117399;1184;23449;-64
2021/08/21 04:11:12;;;;;;;8.40;6.80;;;;;;;20.44;60.51;100527.60;117354;1185;21867;-63
2021/08/21 04:13:40;;;;;;;10.30;7.00;;;;;;;20.53;60.42;100526.42;117461;1185;21845;-68
2021/08/21 04:16:28;;;;;;;10.40;8.00;;;;;;;20.62;60.39;100526.69;117361;1184;22934;-64
2021/08/21 04:18:56;;;;;;;10.00;7.30;;;;;;;20.71;60.44;100526.75;117325;1182;22623;-68
2021/08/21 04:21:35;;;;;;;9.30;7.00;;;;;;;20.79;60.42;100525.09;117328;1182;23490;-68
2021/08/21 04:24:04;;;;;;;9.10;7.30;;;;;;;20.88;60.33;100526.80;117407;1182;23470;-65
2021/08/21 04:26:32;;;;;;;9.10;7.40;;;;;;;20.93;60.41;100525.99;117447;1186;23452;-64
2021/08/21 04:29:00;;;;;;;9.50;7.60;;;;;;;20.95;60.45;100525.17;117431;1186;23471;-64
2021/08/21 04:31:29;;;;;;;9.30;7.10;;;;;;;21.03;60.41;100524.34;117344;1184;21858;-64
2021/08/21 04:33:57;;;;;;;10.30;7.50;;;;;;;21.14;60.36;100523.08;117455;1183;23557;-67
2021/08/21 04:36:26;;;;;;;12.70;7.90;;;;;;;21.27;60.22;100520.40;117471;1184;21857;-63
2021/08/21 04:38:54;;;;;;;10.80;7.40;;;;;;;21.34;60.22;100516.98;117325;1185;21846;-69
2021/08/21 04:41:22;;;;;;;9.00;6.90;;;;;;;21.43;60.06;100519.55;117465;1183;21857;-64
2021/08/21 04:43:50;;;;;;;9.00;7.10;;;;;;;21.51;59.86;100514.09;117190;1185;21853;-68
2021/08/21 04:46:18;;;;;;;11.00;7.00;;;;;;;21.62;59.74;100514.95;117425;1185;23538;-64
2021/08/21 04:48:50;;;;;;;9.30;6.70;;;;;;;21.73;59.50;100513.61;117352;1183;23498;-66
2021/08/21 04:51:18;;;;;;;8.30;7.00;;;;;;;21.83;59.33;100518.62;117466;1184;21855;-64
2021/08/21 04:53:46;;;;;;;7.60;6.60;;;;;;;21.94;59.17;100521.92;117432;1182;21848;-69
2021/08/21 04:56:14;;;;;;;8.30;7.10;;;;;;;22.10;58.82;100526.18;117422;1185;23452;-64
2021/08/21 04:58:42;;;;;;;12.40;7.90;;;;;;;22.27;58.34;100526.60;117388;1184;22655;-62
2021/08/21 05:01:10;;;;;;;8.20;7.10;;;;;;;22.33;58.33;100530.20;117441;1185;23446;-65
2021/08/21 05:03:40;;;;;;;7.80;6.60;;;;;;;22.51;57.98;100531.11;117396;1184;23481;-64
2021/08/21 05:06:08;;;;;;;8.30;6.60;;;;;;;22.61;57.68;100532.88;117495;1184;23552;-65
2021/08/21 05:08:36;;;;;;;9.60;6.80;;;;;;;22.68;57.30;100535.98;117388;1185;21861;-70
2021/08/21 05:11:14;;;;;;;8.70;7.00;;;;;;;22.78;57.15;100539.54;117430;1179;23590;-71
2021/08/21 05:13:43;;;;;;;8.80;6.60;;;;;;;22.96;56.90;100537.34;117504;1185;23088;-70
2021/08/21 05:16:11;;;;;;;9.80;6.80;;;;;;;23.14;56.57;100540.02;117334;1185;21871;-63
2021/08/21 05:18:46;;;;;;;7.70;6.30;;;;;;;23.31;56.04;100538.97;117401;1186;23643;-64
2021/08/21 05:21:25;;;;;;;9.30;6.80;;;;;;;23.46;55.56;100538.55;117358;1185;23557;-65
2021/08/21 05:23:54;;;;;;;11.50;7.70;;;;;;;23.55;55.26;100539.75;117381;1180;22854;-73
2021/08/21 05:26:23;;;;;;;10.30;7.40;;;;;;;23.66;55.10;100540.46;117381;1183;23525;-64
2021/08/21 05:28:52;;;;;;;11.90;9.20;;;;;;;23.85;54.57;100542.32;117480;1184;22619;-63
2021/08/21 05:31:20;;;;;;;11.80;8.20;;;;;;;24.03;54.22;100545.96;117508;1185;24157;-69
2021/08/21 05:33:48;;;;;;;9.30;6.30;;;;;;;24.21;53.99;100547.48;117388;1182;21911;-70
2021/08/21 05:36:16;;;;;;;10.10;7.50;;;;;;;24.34;53.83;100547.67;117506;1182;23451;-70
2021/08/21 05:38:44;;;;;;;7.10;6.30;;;;;;;24.54;53.24;100547.84;117422;1185;23551;-71
2021/08/21 05:41:12;;;;;;;7.40;6.30;;;;;;;24.68;52.85;100550.29;117370;1185;21856;-72
2021/08/21 05:43:41;;;;;;;8.70;7.10;;;;;;;24.79;52.45;100548.28;117339;1186;23454;-68
2021/08/21 05:46:09;;;;;;;8.00;6.30;;;;;;;24.92;51.80;100546.65;117421;1182;21854;-65
2021/08/21 05:48:38;;;;;;;7.90;6.30;;;;;;;25.12;51.29;100546.02;117379;1183;22964;-70
2021/08/21 05:51:06;;;;;;;6.90;5.90;;;;;;;25.31;50.84;100543.58;117367;1182;21856;-69
2021/08/21 05:53:34;;;;;;;7.80;6.00;;;;;;;25.46;50.57;100545.70;117346;1184;21868;-69
2021/08/21 05:56:03;;;;;;;8.20;6.20;;;;;;;25.64;49.80;100548.05;117472;1185;21857;-64
2021/08/21 05:58:31;;;;;;;11.50;6.50;;;;;;;25.82;49.53;100545.33;117465;1185;21844;-65
2021/08/21 06:00:59;;;;;;;9.40;5.80;;;;;;;25.91;49.53;100544.67;117334;1183;22895;-68
2021/08/21 06:03:27;;;;;;;9.40;6.20;;;;;;;26.09;48.80;100550.86;117340;1183;23555;-72
2021/08/21 06:05:56;;;;;;;15.10;6.30;;;;;;;26.41;47.72;100550.81;117387;1184;23450;-62
2021/08/21 06:08:24;;;;;;;21.30;6.30;;;;;;;26.66;47.11;100552.48;117432;1182;22926;-61
2021/08/21 06:10:55;;;;;;;12.70;6.30;;;;;;;26.92;46.73;100553.92;117310;1182;23458;-68
2021/08/21 06:13:23;;;;;;;15.30;6.10;;;;;;;27.16;46.05;100549.20;117358;1183;21867;-59
2021/08/21 06:16:01;;;;;;;13.30;6.00;;;;;;;27.33;45.62;100546.57;117376;1186;23449;-59
2021/08/21 06:18:43;;;;;;;7.30;5.40;;;;;;;27.43;45.48;100547.77;117391;1184;22667;-63
2021/08/21 06:21:11;;;;;;;7.40;5.20;;;;;;;27.53;45.40;100546.09;117415;1182;23657;-75
2021/08/21 06:23:40;;;;;;;12.30;6.00;;;;;;;27.66;45.13;100552.07;117420;1183;22654;-74
2021/08/21 06:26:08;;;;;;;12.90;5.60;;;;;;;27.83;44.62;100549.45;117392;1182;23461;-76
2021/08/21 06:28:37;;;;;;;8.60;5.40;;;;;;;27.96;44.43;100548.00;117524;1184;22924;-71
2021/08/21 06:31:05;;;;;;;64.30;9.40;;;;;;;28.13;43.94;100551.29;117339;1181;23470;-65
2021/08/21 06:33:33;;;;;;;12.50;5.90;;;;;;;28.35;43.58;100551.61;117450;1185;23457;-64
2021/08/21 06:36:01;;;;;;;8.50;5.40;;;;;;;28.48;43.77;100550.19;117291;1176;21853;-68
2021/08/21 06:38:30;;;;;;;6.80;5.30;;;;;;;28.66;43.68;100554.64;117356;1185;23452;-66
2021/08/21 06:40:59;;;;;;;7.40;5.70;;;;;;;28.84;43.20;100555.61;117413;1180;22314;-68
2021/08/21 06:43:27;;;;;;;8.50;5.60;;;;;;;29.04;42.83;100559.27;117326;1182;21864;-64
2021/08/21 06:45:56;;;;;;;7.50;5.40;;;;;;;29.27;42.50;100561.27;117356;1182;23452;-68
2021/08/21 06:48:26;;;;;;;6.40;5.10;;;;;;;29.53;41.28;100556.83;117391;1183;23727;-69
2021/08/21 06:50:55;;;;;;;9.10;5.80;;;;;;;29.70;40.80;100557.10;117439;1183;21873;-65
2021/08/21 06:53:25;;;;;;;10.20;5.10;;;;;;;29.87;40.94;100558.10;117513;1184;21858;-70
2021/08/21 06:55:53;;;;;;;10.20;5.50;;;;;;;30.03;40.42;100557.79;117430;1182;22989;-66
2021/08/21 06:58:21;;;;;;;7.40;5.20;;;;;;;30.18;40.03;100556.35;117395;1176;21888;-69
2021/08/21 07:00:50;;;;;;;8.60;5.00;;;;;;;30.31;39.84;100557.70;117543;1182;23481;-69
2021/08/21 07:03:18;;;;;;;6.50;4.80;;;;;;;30.55;38.89;100561.43;117424;1182;24168;-68
2021/08/21 07:05:46;;;;;;;10.60;4.90;;;;;;;30.61;38.91;100563.27;117405;1184;23362;-64
2021/08/21 07:08:15;;;;;;;10.10;4.70;;;;;;;30.76;38.81;100561.73;117383;1185;23470;-64
2021/08/21 07:10:43;;;;;;;8.00;5.10;;;;;;;31.02;38.21;100564.48;117434;1182;23456;-63
2021/08/21 07:13:24;;;;;;;6.40;4.30;;;;;;;31.02;38.25;100563.40;117403;1182;23451;-64
2021/08/21 07:16:09;;;;;;;15.90;5.30;;;;;;;31.12;37.89;100562.48;117350;1182;23487;-63
2021/08/21 07:54:46;;;;;;;4.60;3.50;;;;;;;30.47;38.39;100577.98;115477;1202;547781;-67
2021/08/21 07:57:14;;;;;;;5.30;3.50;;;;;;;32.37;34.61;100570.86;117038;1189;21857;-68
2021/08/21 07:59:43;;;;;;;4.20;3.70;;;;;;;32.60;33.77;100567.14;116794;1189;21923;-65
2021/08/21 08:02:12;;;;;;;5.90;4.00;;;;;;;32.72;33.56;100570.42;116853;1183;21855;-67
2021/08/21 08:04:41;;;;;;;4.90;3.90;;;;;;;32.84;33.18;100567.70;116853;1189;23436;-64
2021/08/21 08:07:09;;;;;;;7.40;3.70;;;;;;;32.96;33.18;100567.67;116819;1189;21857;-66
2021/08/21 08:09:37;;;;;;;6.90;3.50;;;;;;;33.06;32.73;100570.57;116814;1189;22811;-66
2021/08/21 08:12:13;;;;;;;7.90;3.60;;;;;;;33.21;32.16;100572.25;116675;1192;22950;-65
2021/08/21 08:14:42;;;;;;;6.70;3.80;;;;;;;33.17;31.70;100570.66;116895;1192;21871;-68
2021/08/21 08:17:13;;;;;;;5.00;3.50;;;;;;;33.11;31.58;100572.91;116920;1191;21858;-69
2021/08/21 08:19:41;;;;;;;;;;;;;;;33.17;31.37;100573.25;116778;1192;21845;-68
2021/08/21 08:22:09;;;;;;;4.90;3.60;;;;;;;33.30;31.24;100574.27;116764;1186;23269;-68
2021/08/21 08:24:37;;;;;;;5.40;3.80;;;;;;;33.43;31.34;100575.06;117262;1186;21867;-73
2021/08/21 08:27:06;;;;;;;6.00;3.80;;;;;;;33.52;30.83;100575.21;117325;1186;23432;-67
2021/08/21 08:29:34;;;;;;;8.30;3.70;;;;;;;33.56;30.47;100572.96;117302;1182;23535;-69
2021/08/21 08:32:03;;;;;;;5.10;3.70;;;;;;;33.61;30.45;100569.68;117228;1183;24252;-69
2021/08/21 08:34:31;;;;;;;6.80;3.80;;;;;;;33.71;30.66;100570.42;117321;1186;23550;-68
2021/08/21 08:37:00;;;;;;;6.20;3.80;;;;;;;33.91;30.49;100571.76;117440;1183;22654;-67
2021/08/21 08:39:29;;;;;;;6.00;3.90;;;;;;;33.99;29.82;100570.38;117338;1182;22817;-68
2021/08/21 08:41:58;;;;;;;4.90;3.90;;;;;;;33.97;29.76;100568.47;117188;1186;21944;-65
2021/08/21 08:44:26;;;;;;;6.40;4.00;;;;;;;33.93;29.91;100568.68;117192;1177;23625;-67
2021/08/21 08:46:54;;;;;;;5.20;3.50;;;;;;;33.86;29.89;100568.24;117139;1188;23433;-64
2021/08/21 08:49:22;;;;;;;5.00;3.80;;;;;;;34.00;30.03;100570.58;117137;1186;21858;-66
2021/08/21 08:51:50;;;;;;;5.00;3.30;;;;;;;34.17;29.66;100572.20;117183;1186;21857;-63
2021/08/21 08:54:18;;;;;;;7.40;3.70;;;;;;;34.26;29.13;100571.46;117133;1189;21857;-68
2021/08/21 08:56:47;;;;;;;5.10;3.20;;;;;;;34.43;29.03;100572.33;117296;1188;22902;-65
2021/08/21 08:59:15;;;;;;;4.80;3.60;;;;;;;34.68;28.90;100576.91;117306;1182;21864;-65
2021/08/21 09:01:44;;;;;;;5.60;3.20;;;;;;;34.96;28.52;100578.48;117349;1186;21892;-67
2021/08/21 09:04:23;;;;;;;5.30;3.20;;;;;;;35.16;28.09;100577.86;117327;1186;24139;-67
2021/08/21 09:06:52;;;;;;;4.70;3.60;;;;;;;35.29;27.75;100579.86;117349;1186;22983;-70
2021/08/21 09:09:22;;;;;;;4.70;3.10;;;;;;;35.42;27.58;100582.06;117366;1186;23547;-69
2021/08/21 09:11:55;;;;;;;6.40;3.50;;;;;;;35.44;27.39;100583.39;117373;1186;21907;-68
2021/08/21 09:14:30;;;;;;;6.30;4.10;;;;;;;35.47;28.21;100581.30;117485;1185;22830;-70
2021/08/21 09:17:20;;;;;;;5.20;4.10;;;;;;;35.77;27.95;100580.71;117379;1186;21858;-69
2021/08/21 09:19:48;;;;;;;5.30;3.10;;;;;;;36.01;27.12;100577.27;117326;1186;21848;-69
2021/08/21 09:22:16;;;;;;;6.10;3.10;;;;;;;36.07;27.01;100577.34;117393;1185;21845;-68
2021/08/21 09:24:44;;;;;;;3.50;2.80;;;;;;;36.10;26.39;100578.55;117357;1186;21864;-67
2021/08/21 09:27:17;;;;;;;3.50;2.70;;;;;;;36.11;26.36;100577.92;117366;1186;21855;-67
2021/08/21 09:29:47;;;;;;;3.90;2.90;;;;;;;36.10;26.29;100582.60;117402;1185;23702;-65
2021/08/21 09:32:15;;;;;;;6.10;3.00;;;;;;;36.20;26.29;100585.47;117234;1185;23372;-65
2021/08/21 09:34:43;;;;;;;4.40;2.90;;;;;;;36.26;26.32;100580.93;117544;1186;21845;-67
2021/08/21 09:37:11;;;;;;;3.90;3.00;;;;;;;36.48;26.07;100575.60;117287;1186;21922;-67
2021/08/21 09:39:40;;;;;;;5.80;2.80;;;;;;;36.81;25.56;100577.06;117416;1185;21857;-69
2021/08/21 09:42:09;;;;;;;4.70;3.20;;;;;;;36.85;24.94;100572.52;117297;1186;21854;-66
2021/08/21 09:44:42;;;;;;;4.40;3.20;;;;;;;36.76;24.89;100572.73;117431;1183;21867;-68
2021/08/21 09:47:11;;;;;;;4.10;3.10;;;;;;;36.65;25.15;100577.33;117454;1183;23556;-72
2021/08/21 09:49:40;;;;;;;4.90;2.80;;;;;;;36.71;25.26;100579.20;117354;1186;22928;-68
2021/08/21 09:52:14;;;;;;;3.90;2.70;;;;;;;36.75;24.96;100577.10;117383;1186;23624;-69
2021/08/21 09:54:44;;;;;;;3.50;2.50;;;;;;;36.81;25.09;100572.16;117414;1183;21864;-66
2021/08/21 09:57:21;;;;;;;7.30;3.70;;;;;;;37.03;25.36;100570.75;117427;1186;22365;-69
2021/08/21 09:59:51;;;;;;;4.60;3.20;;;;;;;37.30;25.03;100571.70;117310;1183;21858;-70
2021/08/21 10:02:20;;;;;;;4.60;3.40;;;;;;;37.49;24.61;100575.73;117435;1186;21960;-67
2021/08/21 10:04:48;;;;;;;4.30;2.80;;;;;;;37.53;24.17;100575.86;117299;1189;21865;-67
2021/08/21 10:07:22;;;;;;;6.20;3.60;;;;;;;37.42;24.01;100573.92;117387;1185;22979;-68
2021/08/21 10:10:07;;;;;;;4.30;3.30;;;;;;;37.39;24.65;100577.39;117406;1182;21855;-65
2021/08/21 10:12:56;;;;;;;;;;;;;;;37.42;24.10;100579.00;117529;1186;21848;-67
2021/08/21 10:15:43;;;;;;;7.80;4.80;;;;;;;37.46;23.69;100572.52;117344;1182;21846;-69
2021/08/21 10:18:11;;;;;;;8.60;5.00;;;;;;;37.46;23.61;100572.08;117341;1185;21854;-64
2021/08/21 10:20:40;;;;;;;4.80;3.70;;;;;;;37.41;23.91;100572.53;117418;1185;21874;-70
2021/08/21 10:23:10;;;;;;;6.20;5.60;;;;;;;37.51;24.08;100570.02;117471;1176;21850;-75
2021/08/21 10:25:41;;;;;;;7.50;5.70;;;;;;;37.68;24.04;100566.89;117446;1183;23595;-68
2021/08/21 10:28:09;;;;;;;5.20;4.70;;;;;;;37.87;23.71;100567.42;117588;1185;21864;-69
2021/08/21 10:30:44;;;;;;;7.10;4.00;;;;;;;38.10;23.08;100565.63;117497;1187;21854;-67
2021/08/21 10:33:15;;;;;;;5.10;3.50;;;;;;;38.19;22.51;100567.23;117330;1185;23557;-67
2021/08/21 10:35:48;;;;;;;5.40;3.10;;;;;;;37.98;22.47;100567.52;117435;1186;22387;-66
2021/08/21 10:38:29;;;;;;;3.80;3.10;;;;;;;37.59;22.77;100568.58;117446;1186;21858;-67
2021/08/21 10:40:57;;;;;;;3.90;3.10;;;;;;;37.06;23.20;100575.50;117424;1185;21857;-68
2021/08/21 10:43:56;;;;;;;4.80;3.30;;;;;;;36.65;23.58;100576.27;117394;1183;21848;-65
2021/08/21 10:46:30;;;;;;;10.10;3.80;;;;;;;36.26;24.12;100577.95;117266;1185;23436;-71
2021/08/21 10:48:59;;;;;;;5.20;3.40;;;;;;;35.92;24.73;100579.03;117413;1182;21859;-64
2021/08/21 10:51:35;;;;;;;4.20;3.30;;;;;;;35.76;25.17;100579.77;117531;1182;21854;-65
2021/08/21 10:54:18;;;;;;;3.60;2.80;;;;;;;35.86;25.58;100577.31;117403;1185;21911;-65
2021/08/21 10:56:47;;;;;;;4.50;3.10;;;;;;;36.11;25.54;100578.06;117411;1185;21853;-65
2021/08/21 10:59:41;;;;;;;4.50;3.10;;;;;;;36.49;25.50;100573.48;117434;1183;21845;-65
2021/08/21 11:02:21;;;;;;;8.40;3.10;;;;;;;36.77;24.56;100572.52;117416;1182;21853;-68
2021/08/21 11:04:49;;;;;;;4.80;3.40;;;;;;;36.77;24.46;100578.14;117474;1185;21856;-66
2021/08/21 11:07:29;;;;;;;6.10;3.40;;;;;;;36.62;24.58;100573.39;117412;1186;22515;-65
2021/08/21 11:10:13;;;;;;;;;;;;;;;36.42;24.66;100577.41;117506;1185;23555;-65
2021/08/21 11:12:47;;;;;;;4.30;3.20;;;;;;;36.15;24.79;100576.61;117434;1185;22908;-64
2021/08/21 11:15:15;;;;;;;5.60;3.10;;;;;;;35.88;25.21;100579.46;117380;1186;22817;-69
2021/08/21 11:17:44;;;;;;;4.40;3.20;;;;;;;35.63;25.56;100579.40;117234;1186;23458;-67
2021/08/21 11:20:33;;;;;;;20.40;4.70;;;;;;;35.33;25.37;100578.85;117283;1185;21868;-65
2021/08/21 11:23:07;;;;;;;14.80;3.50;;;;;;;35.04;25.57;100577.95;117446;1185;22899;-63
2021/08/21 11:25:37;;;;;;;5.60;3.10;;;;;;;34.72;26.18;100578.77;117462;1183;21885;-66
2021/08/21 11:28:06;;;;;;;3.90;3.20;;;;;;;34.37;26.67;100573.69;117513;1183;21986;-65
2021/08/21 11:30:34;;;;;;;6.90;3.00;;;;;;;34.15;26.98;100569.04;117415;1186;23121;-65
2021/08/21 11:33:08;;;;;;;5.10;3.60;;;;;;;34.16;27.59;100566.04;117353;1186;21864;-66
2021/08/21 11:35:40;;;;;;;4.90;3.30;;;;;;;34.42;27.28;100559.29;117396;1183;23435;-66
2021/08/21 11:38:10;;;;;;;7.70;3.20;;;;;;;34.78;27.24;100561.55;117412;1185;21854;-67
2021/08/21 11:40:43;;;;;;;8.40;3.00;;;;;;;35.11;26.83;100558.52;117437;1186;22091;-73
2021/08/21 11:43:22;;;;;;;4.40;2.60;;;;;;;35.33;26.40;100563.73;117438;1183;21845;-66
2021/08/21 11:45:52;;;;;;;5.10;3.20;;;;;;;35.34;25.92;100560.65;117397;1183;22324;-71
2021/08/21 11:48:28;;;;;;;3.80;2.90;;;;;;;35.28;25.92;100558.05;117454;1183;21868;-70
2021/08/21 11:50:56;;;;;;;4.50;3.20;;;;;;;35.35;26.14;100556.75;117449;1183;21858;-70
2021/08/21 11:53:30;;;;;;;3.80;2.90;;;;;;;35.46;25.62;100555.63;117455;1185;21857;-67
2021/08/21 11:55:59;;;;;;;4.20;3.30;;;;;;;35.61;25.72;100555.27;117405;1182;21867;-66
2021/08/21 11:58:29;;;;;;;7.30;3.40;;;;;;;35.58;25.69;100551.37;117389;1185;21873;-71
2021/08/21 12:01:18;;;;;;;4.70;3.50;;;;;;;35.71;25.68;100550.83;117356;1183;21874;-72
2021/08/21 12:06:28;;;;;;;4.70;3.00;;;;;;;36.22;25.41;100547.54;117484;1185;23442;-68
2021/08/21 12:09:10;;;;;;;3.80;3.10;;;;;;;36.55;25.06;100545.80;117415;1185;21858;-67
2021/08/21 12:11:44;;;;;;;3.90;3.10;;;;;;;36.73;24.20;100547.20;117456;1182;21860;-67